South Mashpee, Massachusetts
Current Conditions -  °F | °C
As of 11:35 PM on Thursday 27 Nov 2014 (Local Time) from KFMH Reporting Station
Light Snow Light Snow  
Wind Chill: 25°   Ceiling: 400
Heat Index: 32°   Visibility: 3mi
Dew Point: 32°   Wind: 8mph
Humidity: 100%   Direction: 330°NNW
Pressure: 29.96"   Gusts: NA
Location:  41.6167°N, 70.4906°W
Report Text: KFMH 280435Z AUTO 33007KT 3SM -SN BKN004 BKN018 OVC024 00/M00 A2996 RMK AO2
Loading
Personal Weather Stations






























Interactive Weather Map New forecast layout! Learn more

10-Day Weather Forecast

Advertisements
Track Severe Weather on mobile